Klamath Falls, OR (97601)

2:18 PM PDT on August 29, 2016 (GMT -0700)
Klamath Falls City Schools | | Change Station
Active Advisory: Fire Weather Warning

Elev 4104 ft 42.22 °N, 121.75 °W | Updated 17 seconds ago

Clear
Clear
78.0 °F
Feels Like 77 °F
N
6.0
Wind Variable Wind from ESE
Gusts 12.0 mph

Today
High -- | Low -- °F
--% Chance of Precip.
Yesterday
High -- | Low -- °F
Precip. -- in
Pressure 30.04 in
Visibility 10.0 miles
Clouds Clear
Heat Index 77 °F
Dew Point 31 °F
Humidity 18%
Rainfall 0.00 in
Snow Depth Not available.
6:29 AM 7:44 PM
Waning Crescent, 7% visible
METAR KLMT 292053Z 20011KT 10SM CLR 26/M01 A3015 RMK AO2 SLP173 T02561006 56010
Pressure 30.04 in
Visibility 10.0 miles
Clouds Clear
Heat Index 77 °F
Dew Point 31 °F
Humidity 18%
Rainfall 0.00 in
Snow Depth Not available.
6:29 AM 7:44 PM
Waning Crescent, 7% visible
METAR KLMT 292053Z 20011KT 10SM CLR 26/M01 A3015 RMK AO2 SLP173 T02561006 56010

10-Day Weather Forecast

Almanac

Astronomy

Aug. 29, 2016 Rise Set
Actual Time
Civil Twilight
Nautical Twilight
Astronomical Twilight
Moon
Length of Visible Light
Length of Day
Tomorrow will be .
, % of the Moon is Illuminated

Today's Extremes

State Highs State Lows

Community

WunderPhotos

Upload Photos

1,935,679 photos uploaded!

WunderBlog® & News

Nearby

Air Quality

  Air Quality AQ Index Pollutant
Not available.

Snow Depth

Station Depth Elevation

Earthquake Activity

City Distance Mag. Time & Date
Minimum magnitude displayed is 2.5.

Coastal Water Temperatures

Place Temperature

Stations

Nearby Weather Stations

Station Location Temp. Windchill Dew Point Humidity Wind Precip. Elev Updated Type
                   

Watches & Warnings

Fire Weather Warning
Issued: 4:59 AM PDT Aug. 29, 2016 – National Weather Service

... Red flag warning remains in effect from noon today to 9 PM PDT
this evening for combination of strong winds and low relative
humidities for fire weather zones 285... 624 and 625...

* affected area: in northern CA fire zone... .285.
In south central or fire zones... 624... 625.

* Counties affected:
in northern CA... Modoc.
In south central or... Klamath... lake.

* Wind: southwest 10 to 15 mph with gusts up to 25 mph.

* Humidity: as low as 5-10 percent.

Precautionary/preparedness actions...

A red flag warning means that critical fire weather conditions
will occur shortly.

Strong winds and low relative humidities will cause any new fires
to spread very rapidly.

One less spark, one less wildfire.